Jamestown, Idaho
Current Conditions -  °F | °C
As of 7:53 AM on Thursday 30 Oct 2014 (Local Time) from KIDA Reporting Station
Overcast Overcast  
Wind Chill: 33°   Ceiling: 10000
Heat Index: 38°   Visibility: 10mi
Dew Point: 29°   Wind: 6mph
Humidity: 70%   Direction: 10°N
Pressure: 30.29"   Gusts: NA
Location:  43.2015°N, 111.522°W
Report Text: KIDA 301353Z 01005KT 10SM OVC100 03/M02 A3029 RMK AO2 SLP256 T00331017
Loading
Personal Weather Stations






























Interactive Weather Map
Tropical Storm Tracking
New forecast layout! Learn more

10-Day Weather Forecast

Advertisements
Track Severe Weather on mobile